createdAt,value
2023-11-06T05:03:06.224Z,99627.72
2023-11-06T05:06:09.726Z,99627.72
2023-11-06T05:09:12.214Z,99630.25
2023-11-06T05:12:14.686Z,99645.22
2023-11-06T05:15:16.959Z,99651.16
2023-11-06T05:18:19.906Z,99645.78
2023-11-06T05:21:28.756Z,99655.41
2023-11-06T05:24:31.275Z,99658.03
2023-11-06T05:27:33.452Z,99655.12
2023-11-06T05:30:35.875Z,99651.34
2023-11-06T05:33:38.393Z,99650.72
2023-11-06T05:36:42.622Z,99669.59
2023-11-06T05:39:46.798Z,99673.06
2023-11-06T05:42:51.159Z,99680.91
2023-11-06T05:45:54.449Z,99702.41
2023-11-06T05:48:57.298Z,99705.38
2023-11-06T05:51:59.447Z,99705.66
2023-11-06T05:55:01.863Z,99716.78
2023-11-06T05:58:05.642Z,99715.16
2023-11-06T06:01:10.143Z,99722.19
2023-11-06T06:04:14.426Z,99729.22
2023-11-06T06:07:17.031Z,99728.50
2023-11-06T06:10:19.655Z,99724.50
2023-11-06T06:13:23.697Z,99739.53
2023-11-06T06:16:26.245Z,99722.69
2023-11-06T06:19:28.436Z,99725.81
2023-11-06T06:22:32.085Z,99740.44
2023-11-06T06:25:34.309Z,99747.47
2023-11-06T06:28:37.727Z,99754.34
2023-11-06T06:31:39.864Z,99758.31
2023-11-06T06:34:43.174Z,99750.59
2023-11-06T06:37:45.568Z,99761.53
2023-11-06T06:40:52.292Z,99764.72
2023-11-06T06:43:55.222Z,99770.25
2023-11-06T06:46:59.739Z,99771.84
2023-11-06T06:50:02.615Z,99772.22
2023-11-06T06:53:09.410Z,99779.37
2023-11-06T06:56:11.974Z,99789.06
2023-11-06T06:59:14.877Z,99795.91
2023-11-06T07:02:17.303Z,99805.66
2023-11-06T07:05:20.897Z,99812.06
2023-11-06T07:08:25.526Z,99809.81
2023-11-06T07:11:28.554Z,99819.75
2023-11-06T07:14:33.089Z,99819.47
2023-11-06T07:17:35.904Z,99824.84
2023-11-06T07:20:38.248Z,99836.28
2023-11-06T07:23:43.214Z,99851.88
2023-11-06T07:26:45.432Z,99855.56
2023-11-06T07:29:48.773Z,99862.41
2023-11-06T07:32:51.216Z,99859.22
2023-11-06T07:35:54.094Z,99862.09
2023-11-06T07:38:56.485Z,99876.03
2023-11-06T07:41:58.901Z,99893.59
2023-11-06T07:45:01.394Z,99897.47
2023-11-06T07:48:06.944Z,99900.97
2023-11-06T07:51:09.279Z,99902.72
2023-11-06T07:54:12.850Z,99897.81
2023-11-06T07:57:15.419Z,99897.47
2023-11-06T08:00:18.284Z,99898.41
2023-11-06T08:03:20.765Z,99895.09
2023-11-06T08:06:23.226Z,99901.63
2023-11-06T08:09:25.843Z,99906.84
2023-11-06T08:12:28.314Z,99920.97
2023-11-06T08:15:32.007Z,99930.00
2023-11-06T08:18:35.435Z,99935.38
2023-11-06T08:21:38.520Z,99934.00
2023-11-06T08:24:42.312Z,99939.53
2023-11-06T08:27:48.159Z,99947.37
2023-11-06T08:30:51.845Z,99949.25
2023-11-06T08:33:54.429Z,99951.84
2023-11-06T08:36:57.052Z,99966.88
2023-11-06T08:39:59.981Z,99965.31
2023-11-06T08:43:02.224Z,99964.69
2023-11-06T08:46:06.020Z,99973.09
2023-11-06T08:49:10.049Z,99971.22
2023-11-06T08:52:12.838Z,99983.47
2023-11-06T08:55:16.902Z,99992.34
2023-11-06T08:58:19.504Z,99984.41
2023-11-06T09:01:21.949Z,99982.03
2023-11-06T09:04:24.491Z,99986.97
2023-11-06T09:07:28.126Z,99998.22
2023-11-06T09:10:30.831Z,100002.19
2023-11-06T09:13:37.555Z,100008.22
2023-11-06T09:16:41.045Z,100013.78
2023-11-06T09:19:43.715Z,100016.16
2023-11-06T09:22:47.863Z,100029.97
2023-11-06T09:25:50.611Z,100036.16
2023-11-06T09:28:55.111Z,100043.31
2023-11-06T09:31:57.380Z,100049.34
2023-11-06T09:35:02.268Z,100056.00
2023-11-06T09:38:04.820Z,100051.25
2023-11-06T09:41:07.568Z,100055.38
2023-11-06T09:44:10.009Z,100056.97
2023-11-06T09:47:13.188Z,100060.31
2023-11-06T09:50:20.133Z,100056.34
2023-11-06T09:53:24.227Z,100054.59
2023-11-06T09:56:28.633Z,100054.91
2023-11-06T09:59:31.153Z,100065.41
2023-11-06T10:02:33.415Z,100066.03
2023-11-06T10:05:35.999Z,100071.59
2023-11-06T10:08:41.003Z,100069.19
2023-11-06T10:11:44.437Z,100069.66
2023-11-06T10:14:48.227Z,100079.69
2023-11-06T10:17:50.970Z,100070.94
2023-11-06T10:20:55.187Z,100073.31
2023-11-06T10:24:02.472Z,100073.12
2023-11-06T10:27:22.163Z,100073.63
2023-11-06T10:30:25.703Z,100075.38
2023-11-06T10:33:32.121Z,100074.06
2023-11-06T10:36:34.900Z,100077.78
2023-11-06T10:39:41.882Z,100078.22
2023-11-06T10:42:46.228Z,100072.16
2023-11-06T10:45:49.927Z,100081.72
2023-11-06T10:48:59.078Z,100074.56
2023-11-06T10:52:04.864Z,100080.59
2023-11-06T10:55:15.644Z,100083.63
2023-11-06T10:58:26.516Z,100090.00
2023-11-06T11:01:29.820Z,100089.22
2023-11-06T11:04:34.287Z,100097.31
2023-11-06T11:07:37.432Z,100093.16
2023-11-06T11:10:42.791Z,100090.31
2023-11-06T11:13:46.024Z,100092.38
2023-11-06T11:16:52.051Z,100095.09
2023-11-06T11:20:07.086Z,100097.94
2023-11-06T11:23:11.691Z,100096.19
2023-11-06T11:26:15.035Z,100095.06
2023-11-06T11:29:17.331Z,100090.63
2023-11-06T11:32:37.048Z,100092.69
2023-11-06T11:35:39.322Z,100088.88
2023-11-06T11:38:49.675Z,100093.97
2023-11-06T11:42:08.450Z,100088.41
2023-11-06T11:45:31.076Z,100089.53
2023-11-06T11:48:52.248Z,100086.03
2023-11-06T11:51:54.839Z,100086.34
2023-11-06T11:54:57.088Z,100086.50
2023-11-06T11:58:10.410Z,100083.94
2023-11-06T12:01:12.938Z,100086.81
2023-11-06T12:04:23.810Z,100085.69
2023-11-06T12:07:31.943Z,100081.41
2023-11-06T12:10:34.489Z,100089.81
2023-11-06T12:13:36.856Z,100089.03
2023-11-06T12:16:53.602Z,100087.69
2023-11-06T12:20:01.253Z,100093.53
2023-11-06T12:23:04.005Z,100089.25
2023-11-06T12:26:15.296Z,100087.25
2023-11-06T12:29:30.677Z,100083.06
2023-11-06T12:32:33.862Z,100085.19
2023-11-06T12:35:38.727Z,100090.41
2023-11-06T12:38:42.020Z,100087.34
2023-11-06T12:41:44.666Z,100094.22
2023-11-06T12:44:47.835Z,100098.16
2023-11-06T12:47:51.531Z,100098.94
2023-11-06T12:51:00.631Z,100097.06
2023-11-06T12:54:03.246Z,100096.41
2023-11-06T12:57:09.870Z,100096.56
2023-11-06T13:00:16.531Z,100095.94
2023-11-06T13:03:19.653Z,100091.53
2023-11-06T13:06:22.364Z,100093.31
2023-11-06T13:09:25.505Z,100102.84
2023-11-06T13:12:28.032Z,100098.72
2023-11-06T13:15:30.993Z,100106.03
2023-11-06T13:18:35.940Z,100103.34
2023-11-06T13:21:38.114Z,100108.59
2023-11-06T13:24:43.419Z,100112.72
2023-11-06T13:27:45.615Z,100107.44
2023-11-06T13:30:48.607Z,100110.78
2023-11-06T13:33:54.369Z,100107.94
2023-11-06T13:36:57.677Z,100113.81
2023-11-06T13:40:13.034Z,100115.56
2023-11-06T13:43:16.867Z,100112.06
2023-11-06T13:46:19.091Z,100104.75
2023-11-06T13:49:22.911Z,100111.44
2023-11-06T13:52:40.241Z,100112.56
2023-11-06T13:55:57.027Z,100112.53
2023-11-06T13:59:09.770Z,100117.28
2023-11-06T14:02:17.944Z,100122.06
2023-11-06T14:05:21.023Z,100121.13
2023-11-06T14:08:24.844Z,100124.31
2023-11-06T14:11:29.150Z,100122.41
2023-11-06T14:14:31.850Z,100129.13
2023-11-06T14:17:34.367Z,100137.97
2023-11-06T14:20:36.604Z,100131.78
2023-11-06T14:23:39.140Z,100134.63
2023-11-06T14:26:41.372Z,100143.72
2023-11-06T14:29:44.364Z,100136.56
2023-11-06T14:32:47.320Z,100134.34
2023-11-06T14:35:54.093Z,100134.00
2023-11-06T14:38:56.483Z,100139.25
2023-11-06T14:41:59.042Z,100132.28
2023-11-06T14:45:01.236Z,100136.09
2023-11-06T14:48:07.550Z,100137.19
2023-11-06T14:51:10.590Z,100134.03
2023-11-06T14:54:14.062Z,100138.94
2023-11-06T14:57:16.293Z,100136.72
2023-11-06T15:00:20.957Z,100141.66
2023-11-06T15:03:23.401Z,100143.53
2023-11-06T15:06:26.284Z,100140.03
2023-11-06T15:09:28.468Z,100141.13
2023-11-06T15:12:31.733Z,100144.00
2023-11-06T15:15:33.931Z,100144.28
2023-11-06T15:18:36.555Z,100142.53
2023-11-06T15:21:38.793Z,100145.69
2023-11-06T15:24:41.277Z,100149.00
2023-11-06T15:27:44.279Z,100148.16
2023-11-06T15:30:46.717Z,100155.53
2023-11-06T15:33:49.097Z,100162.97
2023-11-06T15:36:51.764Z,100167.06
2023-11-06T15:39:54.020Z,100164.97
2023-11-06T15:42:56.442Z,100172.31
2023-11-06T15:46:01.027Z,100175.59
2023-11-06T15:49:05.287Z,100172.53
2023-11-06T15:52:09.156Z,100185.25
2023-11-06T15:55:12.817Z,100181.91
2023-11-06T15:58:15.372Z,100183.91
2023-11-06T16:01:20.917Z,100192.94
2023-11-06T16:04:27.214Z,100194.78
2023-11-06T16:07:30.893Z,100194.88
2023-11-06T16:10:34.559Z,100204.72
2023-11-06T16:13:39.237Z,100213.72
2023-11-06T16:16:42.104Z,100215.44
2023-11-06T16:19:44.300Z,100218.09
2023-11-06T16:22:46.706Z,100216.91
2023-11-06T16:25:48.920Z,100222.31
2023-11-06T16:28:54.408Z,100216.72
2023-11-06T16:32:01.710Z,100222.50
2023-11-06T16:35:05.058Z,100223.47
2023-11-06T16:38:07.437Z,100235.22
2023-11-06T16:41:10.894Z,100235.41
2023-11-06T16:44:13.832Z,100229.53
2023-11-06T16:47:16.274Z,100233.53
2023-11-06T16:50:24.562Z,100240.37
